Time;durP1;ratioP1;P1;durP2;ratioP2;P2;SDS_P1;SDS_P2;PMS_P1;PMS_P2;Temp;Humidity;BMP_temperature;BMP_pressure;BME280_temperature;BME280_humidity;BME280_pressure;Samples;Min_cycle;Max_cycle;Signal;HPM_P1;HPM_P2
2023/02/21 02:15:05;;;;;;;4.20;2.33;;;5.10;58.20;;;;;;5071543;28;20195;-71
2023/02/21 02:17:42;;;;;;;5.03;2.13;;;5.00;57.50;;;;;;5073184;28;20221;-71
2023/02/21 02:20:53;;;;;;;3.22;1.73;;;5.00;57.20;;;;;;5065394;28;20224;-71
2023/02/21 02:24:10;;;;;;;5.60;2.20;;;4.80;57.40;;;;;;5050253;28;20194;-71
2023/02/21 02:27:14;;;;;;;5.40;2.05;;;4.80;58.10;;;;;;5071023;28;20194;-71
2023/02/21 02:30:16;;;;;;;3.28;1.67;;;4.70;58.20;;;;;;5071629;28;20221;-73
2023/02/21 02:33:20;;;;;;;9.05;3.45;;;4.60;58.40;;;;;;5069209;28;20189;-71
2023/02/21 02:35:53;;;;;;;5.47;2.20;;;4.50;58.70;;;;;;5015174;28;20304;-72
2023/02/21 02:38:26;;;;;;;6.28;2.60;;;4.50;59.10;;;;;;5053298;28;20236;-71
2023/02/21 02:41:00;;;;;;;5.93;2.80;;;4.40;59.40;;;;;;5060295;28;20217;-73
2023/02/21 02:43:31;;;;;;;9.50;3.88;;;4.40;59.20;;;;;;5052820;28;20209;-72
2023/02/21 02:46:04;;;;;;;7.55;2.85;;;4.30;59.30;;;;;;5066921;28;20189;-71
2023/02/21 02:48:36;;;;;;;5.70;3.15;;;4.30;59.60;;;;;;5072412;28;20221;-71
2023/02/21 02:51:09;;;;;;;4.78;2.92;;;4.20;60.00;;;;;;5068497;28;20603;-71
2023/02/21 02:53:36;;;;;;;4.00;2.47;;;4.20;60.20;;;;;;5072050;28;20279;-71
2023/02/21 02:56:05;;;;;;;6.20;2.72;;;4.20;60.30;;;;;;5070783;28;20192;-72
2023/02/21 02:58:35;;;;;;;6.25;2.30;;;4.20;60.50;;;;;;5072420;28;20280;-71
2023/02/21 03:01:17;;;;;;;4.32;2.15;;;4.20;60.70;;;;;;5071418;28;20210;-71
2023/02/21 03:04:06;;;;;;;5.20;1.73;;;4.10;60.70;;;;;;5072353;28;20220;-71
2023/02/21 03:06:44;;;;;;;4.03;1.77;;;4.10;60.60;;;;;;5071791;28;20221;-71
2023/02/21 03:09:17;;;;;;;4.57;1.70;;;4.10;60.70;;;;;;5072228;28;20224;-71
2023/02/21 03:11:56;;;;;;;3.92;2.15;;;4.10;60.70;;;;;;5053941;28;20214;-71
2023/02/21 03:14:29;;;;;;;3.88;1.85;;;4.00;61.20;;;;;;5052287;28;20302;-72
2023/02/21 03:17:01;;;;;;;4.60;1.77;;;4.00;61.40;;;;;;5068418;28;20216;-71
2023/02/21 03:19:33;;;;;;;6.03;2.20;;;4.00;61.30;;;;;;5070638;28;20275;-74
2023/02/21 03:22:05;;;;;;;3.42;1.75;;;4.00;61.40;;;;;;5068565;28;20616;-71
2023/02/21 03:24:34;;;;;;;3.33;1.80;;;4.00;61.30;;;;;;5071754;28;20201;-72
2023/02/21 03:27:05;;;;;;;3.40;2.05;;;4.10;61.00;;;;;;5071092;28;20189;-71
2023/02/21 03:29:33;;;;;;;5.80;2.20;;;4.00;60.70;;;;;;5072298;28;20233;-71
2023/02/21 03:34:37;;;;;;;3.70;2.00;;;4.00;60.30;;;;;;5051988;28;20181;-71
2023/02/21 03:37:07;;;;;;;6.13;2.30;;;3.90;60.30;;;;;;5051631;28;20209;-71
2023/02/21 03:39:34;;;;;;;5.80;1.60;;;3.90;60.00;;;;;;5051798;28;20189;-71
2023/02/21 03:42:01;;;;;;;2.70;1.83;;;3.90;60.00;;;;;;5051487;28;20279;-71
2023/02/21 03:44:28;;;;;;;7.05;2.47;;;3.80;59.70;;;;;;5051969;28;20240;-71
2023/02/21 03:46:55;;;;;;;5.45;2.20;;;3.70;59.50;;;;;;5068081;28;20723;-71
2023/02/21 03:49:22;;;;;;;3.95;1.92;;;3.50;60.00;;;;;;5071823;28;20251;-72
2023/02/21 03:51:49;;;;;;;3.17;1.95;;;3.50;60.00;;;;;;5054987;28;20221;-77
2023/02/21 03:54:17;;;;;;;8.23;2.10;;;3.30;58.80;;;;;;5042347;28;20598;-76
2023/02/21 03:56:44;;;;;;;3.30;2.33;;;3.30;58.70;;;;;;5071816;28;20232;-72
2023/02/21 03:59:13;;;;;;;3.85;1.95;;;3.10;58.40;;;;;;5071145;28;20235;-71
2023/02/21 04:01:40;;;;;;;3.35;1.60;;;2.90;59.00;;;;;;5071496;28;20252;-70
2023/02/21 04:04:07;;;;;;;4.65;2.10;;;2.80;59.60;;;;;;5069294;28;20275;-70
2023/02/21 04:06:34;;;;;;;4.07;2.08;;;2.80;60.50;;;;;;5071163;28;20227;-71
2023/02/21 04:09:01;;;;;;;10.73;2.08;;;2.80;61.40;;;;;;5070835;28;20212;-70
2023/02/21 04:11:31;;;;;;;3.35;2.25;;;2.80;62.40;;;;;;5071595;28;20266;-70
2023/02/21 04:13:58;;;;;;;6.43;2.45;;;2.80;63.30;;;;;;5070926;28;20634;-71
2023/02/21 04:16:25;;;;;;;4.63;2.00;;;2.70;63.70;;;;;;5073931;28;20608;-71
2023/02/21 04:18:53;;;;;;;4.97;2.40;;;2.80;64.20;;;;;;5073549;28;20194;-73
2023/02/21 04:21:19;;;;;;;4.05;2.25;;;2.80;64.70;;;;;;5055515;28;20640;-71
2023/02/21 04:23:46;;;;;;;3.33;2.00;;;2.80;64.60;;;;;;5054869;28;20301;-76
2023/02/21 04:26:13;;;;;;;3.67;2.08;;;2.80;63.80;;;;;;5074689;28;20181;-71
2023/02/21 04:28:42;;;;;;;11.18;2.45;;;2.80;64.20;;;;;;5075225;28;20224;-71
2023/02/21 04:31:09;;;;;;;4.88;2.58;;;2.80;64.30;;;;;;5074411;28;20250;-71
2023/02/21 04:33:36;;;;;;;5.90;3.20;;;2.80;64.20;;;;;;5075093;28;20242;-72
2023/02/21 04:36:03;;;;;;;6.70;3.25;;;2.80;63.80;;;;;;5056430;28;20216;-71
2023/02/21 04:38:30;;;;;;;4.57;2.20;;;2.90;63.50;;;;;;5055160;28;20224;-71
2023/02/21 04:40:57;;;;;;;8.80;2.72;;;2.90;62.50;;;;;;5072439;28;20273;-72
2023/02/21 04:43:26;;;;;;;5.45;3.58;;;2.90;62.20;;;;;;5075050;28;20228;-71
2023/02/21 04:45:55;;;;;;;6.95;3.97;;;2.90;63.20;;;;;;5073384;28;20211;-71
2023/02/21 04:48:22;;;;;;;5.63;3.17;;;2.90;63.30;;;;;;5075022;28;20279;-71
2023/02/21 04:50:49;;;;;;;3.80;2.70;;;2.90;63.40;;;;;;5057506;28;20248;-70
2023/02/21 04:53:19;;;;;;;5.47;3.50;;;2.80;63.90;;;;;;5055108;28;20238;-71
2023/02/21 04:55:46;;;;;;;5.40;2.65;;;2.70;64.50;;;;;;5070428;28;20609;-72
2023/02/21 04:58:13;;;;;;;4.38;2.53;;;2.70;64.50;;;;;;5074811;28;20730;-71
2023/02/21 05:00:40;;;;;;;4.53;2.35;;;2.70;64.70;;;;;;5058734;28;20242;-70
2023/02/21 05:03:08;;;;;;;5.20;3.08;;;2.80;65.00;;;;;;5054535;28;20227;-70
2023/02/21 05:05:35;;;;;;;4.95;2.95;;;2.80;65.10;;;;;;5066712;28;20276;-71
2023/02/21 05:08:02;;;;;;;3.28;2.30;;;2.90;65.50;;;;;;5073132;28;20637;-72
2023/02/21 05:10:29;;;;;;;2.75;1.70;;;2.90;65.40;;;;;;5074615;28;20217;-72
2023/02/21 05:12:56;;;;;;;3.15;2.20;;;2.90;64.60;;;;;;5074836;28;20220;-72
2023/02/21 05:15:23;;;;;;;4.60;2.33;;;2.90;64.50;;;;;;5065836;28;20208;-72
2023/02/21 05:17:51;;;;;;;2.92;1.70;;;2.90;64.10;;;;;;5054121;28;20614;-71
2023/02/21 05:20:19;;;;;;;6.55;2.05;;;2.90;64.00;;;;;;5065550;28;20192;-71
2023/02/21 05:22:49;;;;;;;4.35;2.20;;;2.80;64.10;;;;;;5074582;28;20226;-71
2023/02/21 05:25:17;;;;;;;4.20;2.25;;;2.80;64.50;;;;;;5062685;28;20228;-71
2023/02/21 05:27:45;;;;;;;4.80;2.60;;;2.80;64.50;;;;;;5053499;28;20611;-71
2023/02/21 05:30:13;;;;;;;4.80;2.28;;;2.80;64.50;;;;;;5054638;28;20201;-71
2023/02/21 05:32:40;;;;;;;7.20;2.80;;;2.80;64.40;;;;;;5054379;28;20283;-72
2023/02/21 05:35:08;;;;;;;2.80;1.52;;;2.80;64.30;;;;;;5054352;28;20759;-72
2023/02/21 05:37:36;;;;;;;5.85;2.17;;;2.80;63.80;;;;;;5054353;28;20234;-71
2023/02/21 05:40:05;;;;;;;4.03;2.17;;;2.80;63.20;;;;;;5057642;28;20594;-71
2023/02/21 05:42:32;;;;;;;7.20;2.58;;;2.70;63.00;;;;;;5060483;28;20189;-71
2023/02/21 05:45:01;;;;;;;3.42;1.90;;;2.70;63.50;;;;;;5053726;28;20246;-71
2023/02/21 05:47:28;;;;;;;3.42;2.03;;;2.80;64.20;;;;;;5054397;28;20274;-72
2023/02/21 05:49:55;;;;;;;3.33;1.88;;;2.80;64.50;;;;;;5053381;28;20182;-71
2023/02/21 05:52:27;;;;;;;3.10;1.77;;;2.80;64.50;;;;;;5053905;28;20259;-72
2023/02/21 05:54:55;;;;;;;3.60;2.00;;;2.80;64.30;;;;;;5054012;28;20592;-71
2023/02/21 05:57:22;;;;;;;12.10;2.15;;;2.80;63.80;;;;;;5053949;28;20651;-71
2023/02/21 05:59:49;;;;;;;4.05;2.22;;;2.70;62.70;;;;;;5060959;28;20690;-72
2023/02/21 06:02:16;;;;;;;4.68;2.33;;;2.70;62.70;;;;;;5073506;28;20630;-71
2023/02/21 06:04:43;;;;;;;10.30;2.42;;;2.60;62.80;;;;;;5074119;28;20285;-71
2023/02/21 06:07:10;;;;;;;4.95;2.85;;;2.60;63.00;;;;;;5070042;28;20267;-73
2023/02/21 06:09:37;;;;;;;7.13;2.75;;;2.60;63.30;;;;;;5049712;28;20287;-72
2023/02/21 06:12:06;;;;;;;3.65;2.30;;;2.60;63.10;;;;;;5052158;28;20300;-72
2023/02/21 06:14:33;;;;;;;3.50;2.35;;;2.50;63.10;;;;;;5051669;28;20281;-71
2023/02/21 06:17:01;;;;;;;4.65;2.17;;;2.50;62.80;;;;;;5052055;28;20251;-71
2023/02/21 06:19:28;;;;;;;11.98;2.67;;;2.40;62.90;;;;;;5053332;28;20186;-71
2023/02/21 06:21:55;;;;;;;7.03;2.80;;;2.40;62.90;;;;;;5051407;28;20268;-72
2023/02/21 06:24:22;;;;;;;5.90;2.90;;;2.40;63.30;;;;;;5050570;28;20275;-71
2023/02/21 06:26:49;;;;;;;4.18;1.90;;;2.40;63.30;;;;;;5051236;28;20196;-71
2023/02/21 06:29:18;;;;;;;6.45;2.65;;;2.40;63.20;;;;;;5051013;28;20221;-71
2023/02/21 06:31:46;;;;;;;6.28;3.00;;;2.30;63.80;;;;;;5051259;28;20361;-72
2023/02/21 06:34:13;;;;;;;9.30;3.67;;;2.40;64.50;;;;;;5051067;28;20203;-71
2023/02/21 06:36:40;;;;;;;5.53;3.28;;;2.60;65.10;;;;;;5051311;28;20197;-71
2023/02/21 06:39:08;;;;;;;5.45;2.88;;;2.80;66.10;;;;;;5046219;28;20331;-71
2023/02/21 06:41:35;;;;;;;8.02;4.50;;;3.00;64.20;;;;;;5051111;28;20666;-72
2023/02/21 06:44:02;;;;;;;3.90;2.50;;;3.20;62.30;;;;;;5050928;28;20201;-71
2023/02/21 06:46:31;;;;;;;5.80;3.35;;;3.40;62.20;;;;;;5050836;28;20192;-72
2023/02/21 06:48:59;;;;;;;5.53;3.00;;;3.50;61.90;;;;;;5050773;28;20198;-71
2023/02/21 06:51:28;;;;;;;7.75;3.67;;;3.70;61.70;;;;;;5051017;28;20225;-71
2023/02/21 06:53:57;;;;;;;6.38;4.13;;;3.80;60.60;;;;;;5050834;28;20304;-71
2023/02/21 06:56:25;;;;;;;10.80;3.47;;;4.00;60.20;;;;;;5050596;28;20663;-71
2023/02/21 06:58:52;;;;;;;4.28;2.90;;;4.20;60.50;;;;;;5050791;28;20200;-72
2023/02/21 07:01:21;;;;;;;8.57;1.90;;;4.60;60.00;;;;;;5050740;28;20229;-71
2023/02/21 07:03:50;;;;;;;5.40;2.00;;;4.90;59.00;;;;;;5049900;28;20193;-72
2023/02/21 07:06:20;;;;;;;10.68;2.70;;;5.30;57.90;;;;;;5050740;28;20194;-71
2023/02/21 07:08:47;;;;;;;4.45;2.33;;;5.60;57.20;;;;;;5050764;28;20237;-71
2023/02/21 07:11:15;;;;;;;4.30;2.42;;;6.00;55.70;;;;;;5050381;28;20300;-71
2023/02/21 07:13:50;;;;;;;5.35;2.30;;;6.30;54.90;;;;;;5050456;28;20281;-70
2023/02/21 07:16:18;;;;;;;8.15;3.00;;;6.50;54.20;;;;;;5050876;28;20567;-71
2023/02/21 07:18:46;;;;;;;4.75;3.28;;;6.90;53.90;;;;;;5054394;28;20189;-72
2023/02/21 07:21:15;;;;;;;7.78;3.25;;;7.30;53.70;;;;;;5049817;28;20195;-71
2023/02/21 07:23:47;;;;;;;6.45;4.75;;;7.80;53.20;;;;;;5047289;28;20205;-70
2023/02/21 07:26:19;;;;;;;9.30;6.28;;;8.30;52.60;;;;;;5048433;28;20178;-72
2023/02/21 07:28:48;;;;;;;12.60;10.00;;;8.80;50.80;;;;;;5050147;28;20239;-74
2023/02/21 07:31:16;;;;;;;16.27;12.48;;;9.20;49.30;;;;;;5045549;28;20221;-71
2023/02/21 07:33:46;;;;;;;15.05;11.50;;;9.60;48.00;;;;;;5049837;28;20194;-72
2023/02/21 07:36:14;;;;;;;15.50;11.02;;;10.10;45.60;;;;;;5046076;28;20528;-71
2023/02/21 07:38:41;;;;;;;10.82;7.75;;;10.60;44.80;;;;;;5049999;28;20226;-71
2023/02/21 07:41:10;;;;;;;9.65;7.50;;;11.00;43.90;;;;;;5049393;28;20244;-76
2023/02/21 07:43:37;;;;;;;10.30;6.57;;;11.60;43.20;;;;;;5049173;28;20194;-72
2023/02/21 07:46:09;;;;;;;9.40;6.30;;;12.10;41.90;;;;;;5050077;28;20197;-71
2023/02/21 07:48:36;;;;;;;8.00;5.63;;;12.60;40.80;;;;;;5047899;28;20304;-72
2023/02/21 07:51:03;;;;;;;5.28;3.90;;;13.00;39.80;;;;;;5050951;28;20206;-72
2023/02/21 07:53:31;;;;;;;7.07;4.90;;;13.40;38.60;;;;;;5050702;28;20233;-71
2023/02/21 07:55:58;;;;;;;8.23;5.30;;;13.90;38.30;;;;;;5055338;28;20328;-72
2023/02/21 07:58:25;;;;;;;6.40;4.70;;;14.40;36.70;;;;;;5064474;28;20189;-71
2023/02/21 08:00:54;;;;;;;10.32;4.00;;;14.80;35.70;;;;;;5055474;28;20233;-72
2023/02/21 08:03:21;;;;;;;4.70;3.30;;;15.10;34.40;;;;;;5055143;28;20183;-72
2023/02/21 08:05:48;;;;;;;5.60;3.28;;;15.50;33.20;;;;;;5055819;28;20221;-72
2023/02/21 08:08:16;;;;;;;7.50;4.00;;;15.80;32.20;;;;;;5055652;28;20190;-71
2023/02/21 08:10:44;;;;;;;5.73;2.70;;;16.20;32.00;;;;;;5055814;28;20226;-71
2023/02/21 08:13:11;;;;;;;4.33;2.80;;;16.40;31.40;;;;;;5055876;28;20596;-72
2023/02/21 08:15:43;;;;;;;10.20;2.80;;;16.60;30.20;;;;;;5063658;28;20530;-71
2023/02/21 08:18:18;;;;;;;4.20;2.10;;;16.80;30.90;;;;;;5066389;28;20796;-71
2023/02/21 08:20:45;;;;;;;3.50;1.90;;;17.20;28.90;;;;;;5067143;28;20542;-74
2023/02/21 08:23:12;;;;;;;3.60;2.00;;;17.40;28.70;;;;;;5064502;28;20503;-71
2023/02/21 08:25:44;;;;;;;3.70;2.20;;;17.50;28.00;;;;;;5069233;28;20435;-71
2023/02/21 08:28:12;;;;;;;4.40;2.43;;;17.50;28.30;;;;;;5068466;28;20451;-71
2023/02/21 08:30:39;;;;;;;3.00;2.20;;;17.90;28.70;;;;;;5067974;28;20475;-71
2023/02/21 08:33:06;;;;;;;4.70;2.30;;;18.50;28.70;;;;;;5072253;28;20524;-71
2023/02/21 08:35:33;;;;;;;4.13;2.27;;;19.50;28.70;;;;;;5069148;28;20547;-71
2023/02/21 08:38:02;;;;;;;4.17;2.10;;;20.40;27.40;;;;;;5068824;28;20471;-72
2023/02/21 08:40:30;;;;;;;4.00;1.90;;;21.30;26.40;;;;;;5073173;28;20450;-71
2023/02/21 08:42:59;;;;;;;2.90;1.73;;;22.20;25.70;;;;;;5073185;28;20459;-71
2023/02/21 08:45:28;;;;;;;4.10;2.17;;;23.30;25.10;;;;;;5056300;28;20539;-71
2023/02/21 08:47:55;;;;;;;3.30;1.90;;;25.10;24.20;;;;;;5054742;28;20864;-71
2023/02/21 08:50:23;;;;;;;5.17;1.93;;;26.70;22.40;;;;;;5054465;28;20536;-72
2023/02/21 08:52:51;;;;;;;2.70;1.60;;;27.70;20.70;;;;;;5054552;28;20520;-72
2023/02/21 08:55:19;;;;;;;3.10;1.80;;;28.10;19.40;;;;;;5054969;28;20468;-75
2023/02/21 08:57:49;;;;;;;4.03;1.63;;;28.70;19.20;;;;;;5054720;28;20510;-71
2023/02/21 09:00:18;;;;;;;3.47;2.10;;;29.00;17.70;;;;;;5051756;28;20437;-72
2023/02/21 09:02:46;;;;;;;4.70;1.80;;;29.30;18.00;;;;;;5055710;28;20556;-74
2023/02/21 09:05:17;;;;;;;4.30;1.70;;;30.10;17.80;;;;;;5055905;28;20448;-72
2023/02/21 09:07:47;;;;;;;4.83;2.23;;;30.60;16.20;;;;;;5056190;28;20479;-72
2023/02/21 09:10:14;;;;;;;6.87;2.30;;;31.00;16.80;;;;;;5056567;28;20476;-72
2023/02/21 09:12:41;;;;;;;4.67;1.97;;;32.30;16.60;;;;;;5056455;28;20519;-73
2023/02/21 09:15:09;;;;;;;3.97;1.70;;;33.40;14.80;;;;;;5057460;28;20440;-72
2023/02/21 09:17:36;;;;;;;2.27;1.23;;;35.00;14.40;;;;;;5057160;28;20853;-71
2023/02/21 09:20:08;;;;;;;2.70;1.40;;;36.10;12.60;;;;;;5056837;28;20440;-70
2023/02/21 09:22:35;;;;;;;6.40;1.43;;;36.80;12.70;;;;;;5058006;28;20441;-71
2023/02/21 09:25:03;;;;;;;2.40;1.40;;;37.20;12.60;;;;;;5057671;28;20437;-71
2023/02/21 09:27:36;;;;;;;2.60;1.50;;;37.80;12.20;;;;;;5058129;28;20981;-71
2023/02/21 09:30:05;;;;;;;4.30;1.17;;;38.40;11.30;;;;;;5057468;28;20440;-71
2023/02/21 09:32:32;;;;;;;2.63;1.13;;;39.20;11.30;;;;;;5058238;28;20560;-71
2023/02/21 09:34:59;;;;;;;3.67;1.43;;;40.00;9.70;;;;;;5058689;28;20528;-72
2023/02/21 09:37:27;;;;;;;4.10;2.07;;;40.00;8.80;;;;;;5058045;28;20959;-72
2023/02/21 09:39:55;;;;;;;4.47;1.80;;;40.40;8.90;;;;;;5056510;28;20476;-72
2023/02/21 09:42:26;;;;;;;6.30;1.90;;;40.70;8.90;;;;;;5058976;28;20969;-72
2023/02/21 09:44:53;;;;;;;2.37;1.40;;;40.70;8.90;;;;;;5053886;28;20826;-72
2023/02/21 09:47:26;;;;;;;5.23;1.53;;;41.10;8.80;;;;;;5057489;28;20842;-72
2023/02/21 09:50:03;;;;;;;4.53;1.30;;;42.00;9.40;;;;;;5053619;28;20442;-72
2023/02/21 09:52:35;;;;;;;3.37;1.37;;;42.30;9.30;;;;;;5054353;28;20476;-72
2023/02/21 09:55:07;;;;;;;2.03;1.20;;;43.20;8.80;;;;;;5057060;28;20476;-72
2023/02/21 09:57:35;;;;;;;3.13;1.00;;;44.10;8.10;;;;;;5061480;28;20524;-72
2023/02/21 10:00:02;;;;;;;2.73;1.23;;;45.30;8.10;;;;;;5061223;28;20445;-71
2023/02/21 10:02:43;;;;;;;2.73;1.10;;;46.60;7.60;;;;;;5059509;28;20485;-72
2023/02/21 10:05:33;;;;;;;2.43;1.13;;;47.50;6.70;;;;;;5055469;28;20518;-72
2023/02/21 10:08:06;;;;;;;6.97;1.90;;;48.40;6.40;;;;;;5060038;28;20460;-72
2023/02/21 10:10:39;;;;;;;2.37;1.03;;;49.20;5.90;;;;;;5060505;28;20460;-72
2023/02/21 10:13:18;;;;;;;2.30;1.20;;;49.70;5.50;;;;;;5061637;28;20571;-72
2023/02/21 10:15:51;;;;;;;3.00;1.20;;;50.00;5.40;;;;;;5057350;28;20451;-73
2023/02/21 10:18:27;;;;;;;3.00;1.40;;;50.20;5.50;;;;;;5058842;28;20487;-74
2023/02/21 10:20:58;;;;;;;2.83;1.30;;;50.40;5.20;;;;;;5060978;28;20475;-72
2023/02/21 10:23:31;;;;;;;3.80;1.37;;;50.20;4.70;;;;;;5062317;28;20460;-73
2023/02/21 10:26:06;;;;;;;3.10;1.30;;;49.90;4.70;;;;;;5058910;28;20480;-73
2023/02/21 10:28:33;;;;;;;2.83;1.30;;;49.50;4.50;;;;;;5064792;28;20915;-72
2023/02/21 10:31:04;;;;;;;4.60;1.47;;;49.00;4.50;;;;;;5061167;28;20468;-72
2023/02/21 10:33:33;;;;;;;2.23;1.10;;;48.90;4.50;;;;;;5060280;28;20447;-72
2023/02/21 10:36:00;;;;;;;2.40;0.93;;;49.10;4.70;;;;;;5059218;28;20536;-72
2023/02/21 10:38:29;;;;;;;3.47;1.00;;;49.20;4.60;;;;;;5063398;28;20484;-72
2023/02/21 10:40:59;;;;;;;2.90;1.40;;;48.60;4.70;;;;;;5061094;28;20468;-72
2023/02/21 10:43:31;;;;;;;2.17;1.00;;;49.20;4.80;;;;;;5060169;28;20486;-72
2023/02/21 10:46:04;;;;;;;2.20;1.00;;;50.00;4.30;;;;;;5056529;28;20439;-72
2023/02/21 10:48:35;;;;;;;2.47;1.33;;;50.50;4.20;;;;;;5058840;28;20483;-73
2023/02/21 10:51:08;;;;;;;3.80;1.17;;;50.90;3.80;;;;;;5062989;28;20453;-72
2023/02/21 10:53:38;;;;;;;5.40;1.70;;;50.70;3.70;;;;;;5063155;28;20469;-72
2023/02/21 10:56:20;;;;;;;2.13;1.03;;;50.30;3.90;;;;;;5063033;28;20524;-72
2023/02/21 10:58:49;;;;;;;8.00;1.10;;;49.90;3.60;;;;;;5061950;28;20443;-72
2023/02/21 11:01:20;;;;;;;4.37;0.93;;;49.90;4.00;;;;;;5064414;28;20493;-72
2023/02/21 11:03:50;;;;;;;5.03;1.17;;;50.50;4.20;;;;;;5059030;28;20491;-71
2023/02/21 11:06:38;;;;;;;4.67;1.20;;;51.00;3.80;;;;;;5062362;28;20466;-72
2023/02/21 11:09:39;;;;;;;2.90;1.30;;;51.20;3.50;;;;;;5067339;28;20452;-71
2023/02/21 11:12:18;;;;;;;2.00;1.10;;;51.20;3.80;;;;;;5065187;28;20930;-72
2023/02/21 11:15:04;;;;;;;5.13;1.30;;;50.40;3.70;;;;;;5059478;28;20999;-72
2023/02/21 11:17:35;;;;;;;2.90;1.33;;;49.60;4.00;;;;;;5066056;28;20965;-72
2023/02/21 11:20:16;;;;;;;2.00;0.83;;;49.60;4.20;;;;;;5066755;28;20483;-72
2023/02/21 11:22:45;;;;;;;2.47;1.10;;;50.10;4.00;;;;;;5055625;28;21009;-72
2023/02/21 11:25:23;;;;;;;2.57;1.03;;;50.20;4.10;;;;;;5051699;28;20444;-72
2023/02/21 11:28:17;;;;;;;3.03;1.30;;;50.50;3.90;;;;;;5051923;28;20445;-72
2023/02/21 11:30:49;;;;;;;2.50;1.10;;;50.80;3.70;;;;;;5051838;28;20429;-76
2023/02/21 11:33:20;;;;;;;2.20;1.10;;;50.80;3.50;;;;;;5047880;28;20440;-72
2023/02/21 11:35:50;;;;;;;2.73;0.90;;;50.90;3.80;;;;;;5047768;28;20487;-72
2023/02/21 11:38:39;;;;;;;2.93;1.40;;;51.10;3.90;;;;;;5052164;28;20547;-72
2023/02/21 11:41:37;;;;;;;2.57;1.20;;;51.00;3.50;;;;;;5053499;28;20487;-72
2023/02/21 11:44:29;;;;;;;2.17;0.80;;;51.10;3.80;;;;;;5049201;28;20845;-72
2023/02/21 11:47:07;;;;;;;2.40;1.53;;;51.20;3.80;;;;;;5062032;28;20445;-72
2023/02/21 11:49:42;;;;;;;2.63;1.50;;;51.20;3.80;;;;;;5057167;28;20491;-73
2023/02/21 11:52:12;;;;;;;3.80;1.10;;;51.20;3.60;;;;;;5065151;28;20451;-72
2023/02/21 11:54:40;;;;;;;3.00;1.07;;;50.90;3.30;;;;;;5067797;28;20475;-72
2023/02/21 11:57:17;;;;;;;2.33;1.27;;;50.30;3.50;;;;;;5065120;28;20834;-72
2023/02/21 11:59:55;;;;;;;3.40;1.60;;;50.20;3.70;;;;;;5058591;28;20495;-72
2023/02/21 12:03:00;;;;;;;2.50;1.20;;;50.30;3.80;;;;;;5056347;28;20459;-72
2023/02/21 12:05:41;;;;;;;2.60;1.50;;;50.10;3.60;;;;;;5047411;28;20433;-72
2023/02/21 12:08:28;;;;;;;2.30;1.13;;;49.80;3.90;;;;;;5051085;28;20437;-71
2023/02/21 12:11:16;;;;;;;2.83;1.40;;;50.00;3.50;;;;;;5047991;28;20510;-72
2023/02/21 12:13:53;;;;;;;2.10;1.00;;;50.10;3.80;;;;;;5051559;28;20531;-72
2023/02/21 12:16:29;;;;;;;2.00;1.00;;;50.10;3.10;;;;;;5049838;28;20472;-72
2023/02/21 12:19:17;;;;;;;3.40;1.73;;;50.00;3.50;;;;;;5051195;28;20935;-72
2023/02/21 12:22:02;;;;;;;3.97;1.00;;;50.00;3.50;;;;;;5054467;28;20958;-72
2023/02/21 12:24:46;;;;;;;3.43;1.30;;;49.90;3.50;;;;;;5052019;28;20506;-72
2023/02/21 12:27:18;;;;;;;2.00;0.90;;;49.80;3.30;;;;;;5054522;28;20550;-72
2023/02/21 12:30:04;;;;;;;2.10;1.00;;;49.60;3.40;;;;;;5054924;28;20443;-72
2023/02/21 12:32:50;;;;;;;4.47;1.10;;;49.50;4.00;;;;;;5052707;28;20448;-72
2023/02/21 12:35:52;;;;;;;2.50;1.10;;;49.40;3.80;;;;;;5054833;28;20521;-72
2023/02/21 12:38:29;;;;;;;2.53;1.00;;;49.50;3.70;;;;;;5057394;28;20967;-72
2023/02/21 12:41:03;;;;;;;2.70;0.90;;;49.10;3.40;;;;;;5055873;28;20444;-73
2023/02/21 12:43:43;;;;;;;2.50;1.10;;;48.80;3.60;;;;;;5056101;28;20523;-72
2023/02/21 12:46:20;;;;;;;3.50;1.20;;;48.60;3.90;;;;;;5058400;28;20483;-72
2023/02/21 12:48:54;;;;;;;2.70;1.10;;;48.40;4.00;;;;;;5060177;28;20511;-72
2023/02/21 12:51:25;;;;;;;3.73;1.30;;;48.20;4.10;;;;;;5057942;28;20477;-73
2023/02/21 12:53:57;;;;;;;2.50;0.97;;;47.80;4.40;;;;;;5059542;28;20490;-72
2023/02/21 12:56:27;;;;;;;3.43;1.00;;;47.40;4.10;;;;;;5058168;28;20574;-72
2023/02/21 12:58:59;;;;;;;2.73;0.97;;;47.30;4.30;;;;;;5062000;28;20440;-72
2023/02/21 13:01:31;;;;;;;2.47;1.00;;;47.20;4.50;;;;;;5062354;28;20958;-72
2023/02/21 13:04:10;;;;;;;1.90;0.80;;;47.20;4.70;;;;;;5061074;28;20560;-72
2023/02/21 13:06:49;;;;;;;2.70;1.13;;;47.00;4.80;;;;;;5059765;28;20469;-72
2023/02/21 13:09:25;;;;;;;2.10;0.93;;;46.80;4.70;;;;;;5062283;28;20471;-72
2023/02/21 13:12:00;;;;;;;2.43;0.93;;;46.60;4.80;;;;;;5060572;28;20889;-71
2023/02/21 13:14:32;;;;;;;2.60;0.90;;;46.20;4.80;;;;;;5063375;28;20730;-72
2023/02/21 13:17:00;;;;;;;2.40;1.10;;;45.80;4.90;;;;;;5063230;28;20489;-71
2023/02/21 13:19:35;;;;;;;2.17;0.93;;;45.60;5.30;;;;;;5055842;28;20522;-72
2023/02/21 13:22:15;;;;;;;2.43;0.83;;;45.40;5.30;;;;;;5055326;28;20440;-71
2023/02/21 13:24:53;;;;;;;3.20;1.00;;;45.20;5.10;;;;;;5056560;28;20526;-71
2023/02/21 13:27:51;;;;;;;2.13;0.70;;;44.90;5.10;;;;;;5065435;28;20476;-72
2023/02/21 13:30:25;;;;;;;3.53;1.10;;;44.70;5.40;;;;;;5064917;28;20515;-72
2023/02/21 13:32:56;;;;;;;2.80;1.00;;;44.40;5.40;;;;;;5059613;28;20478;-71
2023/02/21 13:35:31;;;;;;;3.60;1.27;;;44.00;5.30;;;;;;5053838;28;20480;-72
2023/02/21 13:37:59;;;;;;;2.03;0.70;;;43.70;5.70;;;;;;5053197;28;20487;-72
2023/02/21 13:40:38;;;;;;;2.47;0.93;;;43.40;5.80;;;;;;5069757;28;20440;-72
2023/02/21 13:43:10;;;;;;;3.90;1.00;;;43.10;5.90;;;;;;5072071;28;20865;-71
2023/02/21 13:45:38;;;;;;;2.10;0.83;;;42.80;6.20;;;;;;5074073;28;20460;-71
2023/02/21 13:48:24;;;;;;;5.33;1.10;;;42.40;6.20;;;;;;5073298;28;20450;-71
2023/02/21 13:50:53;;;;;;;2.00;0.97;;;42.00;6.20;;;;;;5074340;28;20513;-71
2023/02/21 13:53:23;;;;;;;2.90;0.97;;;41.30;6.60;;;;;;5073808;28;20994;-71
2023/02/21 13:56:25;;;;;;;2.53;0.90;;;40.60;6.60;;;;;;5073774;28;20439;-70
2023/02/21 13:59:13;;;;;;;2.93;0.90;;;39.60;7.20;;;;;;5070860;28;20473;-71
2023/02/21 14:01:42;;;;;;;2.50;0.80;;;38.10;7.70;;;;;;5073795;28;20755;-70
2023/02/21 14:04:54;;;;;;;3.10;0.77;;;36.10;8.30;;;;;;5073526;28;20570;-72
2023/02/21 14:07:47;;;;;;;1.80;0.70;;;34.00;9.80;;;;;;5025906;28;20480;-70
2023/02/21 14:10:41;;;;;;;5.63;0.70;;;31.90;10.90;;;;;;5073509;28;20872;-70
2023/02/21 14:13:21;;;;;;;1.93;0.60;;;30.50;11.80;;;;;;5070234;28;20444;-70
2023/02/21 14:15:51;;;;;;;2.53;0.70;;;29.30;12.80;;;;;;5054793;28;20464;-73
2023/02/21 14:18:24;;;;;;;3.20;1.00;;;28.30;13.30;;;;;;5051821;28;20493;-71
2023/02/21 14:20:55;;;;;;;5.00;0.93;;;27.60;14.70;;;;;;5053735;28;20616;-69
2023/02/21 14:23:32;;;;;;;2.00;0.70;;;26.90;15.60;;;;;;5052994;28;20480;-70
2023/02/21 14:26:01;;;;;;;2.10;0.80;;;26.30;15.70;;;;;;5052642;28;20487;-70
2023/02/21 14:29:05;;;;;;;2.97;0.73;;;25.80;16.00;;;;;;5052254;28;20540;-71
2023/02/21 14:31:57;;;;;;;2.13;0.90;;;25.20;16.90;;;;;;5041727;28;20571;-71
2023/02/21 14:34:33;;;;;;;3.50;0.87;;;24.60;17.30;;;;;;5052623;28;20527;-71
2023/02/21 14:37:05;;;;;;;2.90;1.40;;;24.10;17.80;;;;;;5052341;28;20524;-71
2023/02/21 14:39:39;;;;;;;4.93;1.33;;;23.60;18.80;;;;;;5051613;28;20476;-71
2023/02/21 14:42:34;;;;;;;1.90;0.80;;;23.20;18.90;;;;;;5051754;28;20441;-71
2023/02/21 14:45:33;;;;;;;2.00;0.90;;;22.80;19.60;;;;;;5052336;28;20520;-71
2023/02/21 14:48:42;;;;;;;1.87;0.73;;;22.40;20.20;;;;;;5050514;28;20449;-70
2023/02/21 14:51:53;;;;;;;6.43;1.20;;;22.10;20.80;;;;;;5036533;28;20846;-71
2023/02/21 14:54:52;;;;;;;1.90;0.80;;;21.70;20.80;;;;;;5037725;28;20457;-71
2023/02/21 14:58:04;;;;;;;2.30;0.90;;;21.40;21.40;;;;;;5053100;28;20437;-71
2023/02/21 15:00:42;;;;;;;2.10;0.90;;;21.10;22.00;;;;;;4990906;28;20510;-70
2023/02/21 15:03:14;;;;;;;1.97;0.83;;;20.90;22.40;;;;;;5049328;28;20519;-71
2023/02/21 15:05:52;;;;;;;3.67;0.97;;;20.70;22.40;;;;;;5052963;28;20436;-70
2023/02/21 15:08:22;;;;;;;3.03;0.97;;;20.50;22.40;;;;;;5052632;28;20527;-72
2023/02/21 15:10:55;;;;;;;2.10;0.90;;;20.40;22.70;;;;;;5052771;28;20445;-72
2023/02/21 15:13:24;;;;;;;1.90;0.80;;;20.30;22.90;;;;;;5052123;28;20827;-71
2023/02/21 15:15:58;;;;;;;2.80;1.20;;;20.20;23.10;;;;;;5052653;28;20469;-73
2023/02/21 15:18:27;;;;;;;3.07;1.00;;;20.00;23.70;;;;;;5052466;28;20453;-71
2023/02/21 15:21:06;;;;;;;1.97;1.00;;;19.90;24.10;;;;;;5052363;28;20809;-71
2023/02/21 15:23:34;;;;;;;2.30;1.07;;;19.70;24.30;;;;;;5052513;28;20480;-70
2023/02/21 15:26:17;;;;;;;2.23;1.10;;;19.70;24.40;;;;;;5052098;28;20436;-70
2023/02/21 15:28:44;;;;;;;1.60;0.70;;;19.60;24.40;;;;;;5052188;28;20449;-71
2023/02/21 15:31:12;;;;;;;1.90;1.20;;;19.50;24.50;;;;;;5052212;28;20472;-70
2023/02/21 15:33:42;;;;;;;2.40;0.93;;;19.40;24.70;;;;;;5052324;28;20878;-71
2023/02/21 15:36:16;;;;;;;2.07;0.80;;;19.20;24.50;;;;;;5052550;28;20963;-71
2023/02/21 15:38:46;;;;;;;3.03;1.17;;;19.10;24.70;;;;;;5052267;28;20452;-71
2023/02/21 15:41:29;;;;;;;2.50;0.87;;;19.10;25.30;;;;;;5052539;28;20492;-71